Forest Ranch, CA (95942)

2:01 PM PDT on August 29, 2015 (GMT -0700)
Cohasset - Cohasset Loop | | Change Station
CLOSE
Current Station
Personal Weather Station
Location: Cohasset, CA
Elevation: 3100 ft
Nearby Weather Stations

Elev 3100 ft 39.94 °N, 121.73 °W | Updated 3 seconds ago

Partly Cloudy
Partly Cloudy
74.7 °F
Feels Like 77 °F
N
5.8
Wind Variable Wind from SW
Gusts 5.8 mph

Today
High -- | Low -- °F
--% Chance of Precip.
Yesterday
High -- | Low -- °F
Precip. -- in
6:30 AM 7:42 PM
Full, 100% visible
Pressure 29.92 in
Visibility 40.0 miles
Clouds Scattered Clouds 6000 ft
Mostly Cloudy 12000 ft
Heat Index 77 °F
Dew Point 59 °F
Humidity 58%
Rainfall 0.21 in
Snow Depth Not available.
UV 5 out of 12
Pollen 6.10 out of 12
Air Quality Not available.
Flu Activity Not available.
METAR KCIC 292047Z 14016G22KT 40SM SCT060 BKN120 29/14 A2992
Pressure 29.92 in
Visibility 40.0 miles
Clouds Scattered Clouds 6000 ft
Mostly Cloudy 12000 ft
Heat Index 77 °F
Dew Point 59 °F
Humidity 58%
Rainfall 0.21 in
Snow Depth Not available.
UV 5 out of 12
Pollen 6.10 out of 12
Air Quality Not available.
Flu Activity Not available.
METAR KCIC 292047Z 14016G22KT 40SM SCT060 BKN120 29/14 A2992

10-Day Weather Forecast

×

Almanac

Astronomy

Aug. 29, 2015 Rise Set
Actual Time
Civil Twilight
Nautical Twilight
Astronomical Twilight
Moon
Length of Visible Light
Length of Day
Tomorrow will be .
, % of the Moon is Illuminated

Today's Extremes

State Highs State Lows

Community

WunderPhotos

Upload Photos

1,850,800 photos uploaded!

WunderBlogs® & News

Nearby

Air Quality

  Air Quality AQ Index Pollutant
Not available.

Snow Depth

Station Depth Elevation

Earthquake Activity

City Distance Mag. Time & Date
Minimum magnitude displayed is 2.5.

Coastal Water Temperatures

Place Temperature

Stations

Nearby Weather Stations

Station Location Temp. Windchill Dew Point Humidity Wind Precip. Elev Updated Type